Portland, Oregon
Current Conditions -  °F | °C
As of 8:53 PM on Saturday 25 Oct 2014 (Local Time) from KPDX Reporting Station
Light Rain Light Rain  
Wind Chill: 55°   Ceiling: 6000
Heat Index: 55°   Visibility: 10mi
Dew Point: 49°   Wind: 16mph
Humidity: 80%   Direction: 220°SW
Pressure: 29.8"   Gusts: 23mph
Location:  45.51°N, 122.67°W
Report Text: KPDX 260353Z 22014G20KT 10SM -RA BKN060 BKN090 OVC120 13/09 A2980 RMK AO2 RAB03E12B50 SLP092 P0000 T01280094 $
Loading
Personal Weather Stations






























Interactive Weather Map New forecast layout! Learn more

10-Day Weather Forecast

Advertisements
Track Severe Weather on mobile